sensor_id;sensor_type;location;lat;lon;timestamp;temperature;humidity
27619;DHT22;15039;50.830;4.730;2023-07-13T00:01:25;17.10;99.90
27619;DHT22;15039;50.830;4.730;2023-07-13T00:03:52;17.10;99.90
27619;DHT22;15039;50.830;4.730;2023-07-13T00:06:17;17.00;99.90
27619;DHT22;15039;50.830;4.730;2023-07-13T00:08:45;17.00;99.90
27619;DHT22;15039;50.830;4.730;2023-07-13T00:11:11;17.00;99.90
27619;DHT22;15039;50.830;4.730;2023-07-13T00:13:36;17.00;99.90
27619;DHT22;15039;50.830;4.730;2023-07-13T00:16:04;17.00;99.90
27619;DHT22;15039;50.830;4.730;2023-07-13T00:18:30;16.90;99.90
27619;DHT22;15039;50.830;4.730;2023-07-13T00:20:56;16.80;99.90
27619;DHT22;15039;50.830;4.730;2023-07-13T00:23:34;16.80;99.90
27619;DHT22;15039;50.830;4.730;2023-07-13T00:26:04;16.80;99.90
27619;DHT22;15039;50.830;4.730;2023-07-13T00:28:29;16.70;99.90
27619;DHT22;15039;50.830;4.730;2023-07-13T00:30:55;16.70;99.90
27619;DHT22;15039;50.830;4.730;2023-07-13T00:33:21;16.70;99.90
27619;DHT22;15039;50.830;4.730;2023-07-13T00:35:48;16.60;99.90
27619;DHT22;15039;50.830;4.730;2023-07-13T00:38:14;16.60;99.90
27619;DHT22;15039;50.830;4.730;2023-07-13T00:40:40;16.70;99.90
27619;DHT22;15039;50.830;4.730;2023-07-13T00:43:16;16.70;99.90
27619;DHT22;15039;50.830;4.730;2023-07-13T00:48:08;16.60;99.90
27619;DHT22;15039;50.830;4.730;2023-07-13T00:50:34;16.60;99.90
27619;DHT22;15039;50.830;4.730;2023-07-13T00:53:00;16.70;99.90
27619;DHT22;15039;50.830;4.730;2023-07-13T00:55:26;16.70;99.90
27619;DHT22;15039;50.830;4.730;2023-07-13T00:57:52;16.60;99.90
27619;DHT22;15039;50.830;4.730;2023-07-13T01:00:19;16.50;99.90
27619;DHT22;15039;50.830;4.730;2023-07-13T01:02:46;16.50;99.90
27619;DHT22;15039;50.830;4.730;2023-07-13T01:05:20;16.50;99.90
27619;DHT22;15039;50.830;4.730;2023-07-13T01:07:48;16.50;99.90
27619;DHT22;15039;50.830;4.730;2023-07-13T01:10:14;16.50;99.90
27619;DHT22;15039;50.830;4.730;2023-07-13T01:12:40;16.40;99.90
27619;DHT22;15039;50.830;4.730;2023-07-13T01:15:45;16.30;99.90
27619;DHT22;15039;50.830;4.730;2023-07-13T01:18:14;16.30;99.90
27619;DHT22;15039;50.830;4.730;2023-07-13T01:20:40;16.20;99.90
27619;DHT22;15039;50.830;4.730;2023-07-13T01:23:08;16.20;99.90
27619;DHT22;15039;50.830;4.730;2023-07-13T01:25:36;16.20;99.90
27619;DHT22;15039;50.830;4.730;2023-07-13T01:28:07;16.10;99.90
27619;DHT22;15039;50.830;4.730;2023-07-13T01:30:35;16.10;99.90
27619;DHT22;15039;50.830;4.730;2023-07-13T01:33:01;16.00;99.90
27619;DHT22;15039;50.830;4.730;2023-07-13T01:35:27;16.10;99.90
27619;DHT22;15039;50.830;4.730;2023-07-13T01:37:53;16.10;99.90
27619;DHT22;15039;50.830;4.730;2023-07-13T01:40:20;16.00;99.90
27619;DHT22;15039;50.830;4.730;2023-07-13T01:42:45;16.00;99.90
27619;DHT22;15039;50.830;4.730;2023-07-13T01:45:11;16.10;99.90
27619;DHT22;15039;50.830;4.730;2023-07-13T01:47:37;16.00;99.90
27619;DHT22;15039;50.830;4.730;2023-07-13T01:50:03;15.90;99.90
27619;DHT22;15039;50.830;4.730;2023-07-13T01:52:29;15.90;99.90
27619;DHT22;15039;50.830;4.730;2023-07-13T01:54:54;16.00;99.90
27619;DHT22;15039;50.830;4.730;2023-07-13T01:57:20;16.10;99.90
27619;DHT22;15039;50.830;4.730;2023-07-13T01:59:46;16.00;99.90
27619;DHT22;15039;50.830;4.730;2023-07-13T02:02:11;16.00;99.90
27619;DHT22;15039;50.830;4.730;2023-07-13T02:04:37;15.90;99.90
27619;DHT22;15039;50.830;4.730;2023-07-13T02:07:03;16.00;99.90
27619;DHT22;15039;50.830;4.730;2023-07-13T02:09:28;16.00;99.90
27619;DHT22;15039;50.830;4.730;2023-07-13T02:11:54;16.00;99.90
27619;DHT22;15039;50.830;4.730;2023-07-13T02:14:20;16.00;99.90
27619;DHT22;15039;50.830;4.730;2023-07-13T02:16:45;15.90;99.90
27619;DHT22;15039;50.830;4.730;2023-07-13T02:19:11;15.80;99.90
27619;DHT22;15039;50.830;4.730;2023-07-13T02:21:37;15.80;99.90
27619;DHT22;15039;50.830;4.730;2023-07-13T02:24:02;15.80;99.90
27619;DHT22;15039;50.830;4.730;2023-07-13T02:26:28;15.70;99.90
27619;DHT22;15039;50.830;4.730;2023-07-13T02:28:54;15.80;99.90
27619;DHT22;15039;50.830;4.730;2023-07-13T02:31:21;15.70;99.90
27619;DHT22;15039;50.830;4.730;2023-07-13T02:33:47;15.70;99.90
27619;DHT22;15039;50.830;4.730;2023-07-13T02:36:13;15.80;99.90
27619;DHT22;15039;50.830;4.730;2023-07-13T02:38:41;15.70;99.90
27619;DHT22;15039;50.830;4.730;2023-07-13T02:41:08;15.70;99.90
27619;DHT22;15039;50.830;4.730;2023-07-13T02:43:35;15.70;99.90
27619;DHT22;15039;50.830;4.730;2023-07-13T02:46:01;15.70;99.90
27619;DHT22;15039;50.830;4.730;2023-07-13T02:48:33;15.60;99.90
27619;DHT22;15039;50.830;4.730;2023-07-13T02:50:58;15.60;99.90
27619;DHT22;15039;50.830;4.730;2023-07-13T02:53:24;15.60;99.90
27619;DHT22;15039;50.830;4.730;2023-07-13T02:55:49;15.70;99.90
27619;DHT22;15039;50.830;4.730;2023-07-13T02:58:16;15.70;99.90
27619;DHT22;15039;50.830;4.730;2023-07-13T03:00:45;15.70;99.90
27619;DHT22;15039;50.830;4.730;2023-07-13T03:03:12;15.80;99.90
27619;DHT22;15039;50.830;4.730;2023-07-13T03:05:39;15.60;99.90
27619;DHT22;15039;50.830;4.730;2023-07-13T03:08:05;15.60;99.90
27619;DHT22;15039;50.830;4.730;2023-07-13T03:10:32;15.60;99.90
27619;DHT22;15039;50.830;4.730;2023-07-13T03:12:58;15.60;99.90
27619;DHT22;15039;50.830;4.730;2023-07-13T03:15:23;15.60;99.90
27619;DHT22;15039;50.830;4.730;2023-07-13T03:17:50;15.50;99.90
27619;DHT22;15039;50.830;4.730;2023-07-13T03:20:16;15.60;99.90
27619;DHT22;15039;50.830;4.730;2023-07-13T03:22:42;15.50;99.90
27619;DHT22;15039;50.830;4.730;2023-07-13T03:25:08;15.50;99.90
27619;DHT22;15039;50.830;4.730;2023-07-13T03:27:34;15.50;99.90
27619;DHT22;15039;50.830;4.730;2023-07-13T03:29:59;15.50;99.90
27619;DHT22;15039;50.830;4.730;2023-07-13T03:32:25;15.40;99.90
27619;DHT22;15039;50.830;4.730;2023-07-13T03:34:51;15.30;99.90
27619;DHT22;15039;50.830;4.730;2023-07-13T03:37:16;15.30;99.90
27619;DHT22;15039;50.830;4.730;2023-07-13T03:39:42;15.40;99.90
27619;DHT22;15039;50.830;4.730;2023-07-13T03:42:08;15.50;99.90
27619;DHT22;15039;50.830;4.730;2023-07-13T03:44:34;15.40;99.90
27619;DHT22;15039;50.830;4.730;2023-07-13T03:47:00;15.40;99.90
27619;DHT22;15039;50.830;4.730;2023-07-13T03:49:25;15.40;99.90
27619;DHT22;15039;50.830;4.730;2023-07-13T03:51:51;15.40;99.90
27619;DHT22;15039;50.830;4.730;2023-07-13T03:54:17;15.40;99.90
27619;DHT22;15039;50.830;4.730;2023-07-13T03:56:42;15.40;99.90
27619;DHT22;15039;50.830;4.730;2023-07-13T03:59:08;15.40;99.90
27619;DHT22;15039;50.830;4.730;2023-07-13T04:01:33;15.40;99.90
27619;DHT22;15039;50.830;4.730;2023-07-13T04:03:59;15.40;99.90
27619;DHT22;15039;50.830;4.730;2023-07-13T04:06:29;15.40;99.90
27619;DHT22;15039;50.830;4.730;2023-07-13T04:09:00;15.50;99.90
27619;DHT22;15039;50.830;4.730;2023-07-13T04:11:28;15.50;99.90
27619;DHT22;15039;50.830;4.730;2023-07-13T04:13:54;15.60;99.90
27619;DHT22;15039;50.830;4.730;2023-07-13T04:16:21;15.60;99.90
27619;DHT22;15039;50.830;4.730;2023-07-13T04:18:47;15.50;99.90
27619;DHT22;15039;50.830;4.730;2023-07-13T04:21:14;15.60;99.90
27619;DHT22;15039;50.830;4.730;2023-07-13T04:23:40;15.60;99.90
27619;DHT22;15039;50.830;4.730;2023-07-13T04:26:06;15.70;99.90
27619;DHT22;15039;50.830;4.730;2023-07-13T04:28:32;15.80;99.90
27619;DHT22;15039;50.830;4.730;2023-07-13T04:30:59;15.90;99.90
27619;DHT22;15039;50.830;4.730;2023-07-13T04:33:25;15.90;99.90
27619;DHT22;15039;50.830;4.730;2023-07-13T04:35:52;16.00;99.90
27619;DHT22;15039;50.830;4.730;2023-07-13T04:38:27;16.00;99.90
27619;DHT22;15039;50.830;4.730;2023-07-13T04:40:58;16.10;99.90
27619;DHT22;15039;50.830;4.730;2023-07-13T04:43:25;16.10;99.90
27619;DHT22;15039;50.830;4.730;2023-07-13T04:45:51;16.20;99.90
27619;DHT22;15039;50.830;4.730;2023-07-13T04:48:17;16.10;99.90
27619;DHT22;15039;50.830;4.730;2023-07-13T04:50:43;16.20;99.90
27619;DHT22;15039;50.830;4.730;2023-07-13T04:53:09;16.20;99.90
27619;DHT22;15039;50.830;4.730;2023-07-13T04:55:36;16.20;99.90
27619;DHT22;15039;50.830;4.730;2023-07-13T04:58:02;16.30;99.90
27619;DHT22;15039;50.830;4.730;2023-07-13T05:00:29;16.30;99.90
27619;DHT22;15039;50.830;4.730;2023-07-13T05:02:56;16.20;99.90
27619;DHT22;15039;50.830;4.730;2023-07-13T05:05:23;16.30;99.90
27619;DHT22;15039;50.830;4.730;2023-07-13T05:07:49;16.40;99.90
27619;DHT22;15039;50.830;4.730;2023-07-13T05:10:14;16.50;99.90
27619;DHT22;15039;50.830;4.730;2023-07-13T05:12:40;16.50;99.90
27619;DHT22;15039;50.830;4.730;2023-07-13T05:15:07;16.70;99.90
27619;DHT22;15039;50.830;4.730;2023-07-13T05:17:32;16.80;99.90
27619;DHT22;15039;50.830;4.730;2023-07-13T05:19:58;16.90;99.90
27619;DHT22;15039;50.830;4.730;2023-07-13T05:22:24;16.90;99.90
27619;DHT22;15039;50.830;4.730;2023-07-13T05:24:50;16.90;99.90
27619;DHT22;15039;50.830;4.730;2023-07-13T05:27:15;16.80;99.90
27619;DHT22;15039;50.830;4.730;2023-07-13T05:29:41;16.90;99.90
27619;DHT22;15039;50.830;4.730;2023-07-13T05:32:07;17.10;99.90
27619;DHT22;15039;50.830;4.730;2023-07-13T05:34:33;17.20;99.90
27619;DHT22;15039;50.830;4.730;2023-07-13T05:36:58;17.30;99.90
27619;DHT22;15039;50.830;4.730;2023-07-13T05:39:24;17.40;99.90
27619;DHT22;15039;50.830;4.730;2023-07-13T05:41:51;17.40;99.90
27619;DHT22;15039;50.830;4.730;2023-07-13T05:44:18;17.40;99.90
27619;DHT22;15039;50.830;4.730;2023-07-13T05:46:45;17.60;99.90
27619;DHT22;15039;50.830;4.730;2023-07-13T05:49:10;17.70;99.90
27619;DHT22;15039;50.830;4.730;2023-07-13T05:51:36;17.70;99.90
27619;DHT22;15039;50.830;4.730;2023-07-13T05:54:03;17.70;99.90
27619;DHT22;15039;50.830;4.730;2023-07-13T05:56:29;17.80;99.90
27619;DHT22;15039;50.830;4.730;2023-07-13T05:58:56;17.80;99.90
27619;DHT22;15039;50.830;4.730;2023-07-13T06:01:22;17.80;99.90
27619;DHT22;15039;50.830;4.730;2023-07-13T06:03:49;17.80;99.90
27619;DHT22;15039;50.830;4.730;2023-07-13T06:06:15;17.90;99.90
27619;DHT22;15039;50.830;4.730;2023-07-13T06:08:41;17.80;99.90
27619;DHT22;15039;50.830;4.730;2023-07-13T06:11:18;17.80;99.90
27619;DHT22;15039;50.830;4.730;2023-07-13T06:13:44;17.80;99.90
27619;DHT22;15039;50.830;4.730;2023-07-13T06:16:12;17.80;99.90
27619;DHT22;15039;50.830;4.730;2023-07-13T06:18:39;17.70;99.90
27619;DHT22;15039;50.830;4.730;2023-07-13T06:21:12;17.70;99.90
27619;DHT22;15039;50.830;4.730;2023-07-13T06:23:38;17.80;99.90
27619;DHT22;15039;50.830;4.730;2023-07-13T06:26:04;17.80;99.90
27619;DHT22;15039;50.830;4.730;2023-07-13T06:28:31;17.90;99.90
27619;DHT22;15039;50.830;4.730;2023-07-13T06:30:58;18.00;99.90
27619;DHT22;15039;50.830;4.730;2023-07-13T06:33:24;17.90;99.90
27619;DHT22;15039;50.830;4.730;2023-07-13T06:35:50;18.00;99.90
27619;DHT22;15039;50.830;4.730;2023-07-13T06:38:16;18.00;99.90
27619;DHT22;15039;50.830;4.730;2023-07-13T06:40:41;18.10;99.90
27619;DHT22;15039;50.830;4.730;2023-07-13T06:43:07;18.10;99.90
27619;DHT22;15039;50.830;4.730;2023-07-13T06:45:40;18.30;99.90
27619;DHT22;15039;50.830;4.730;2023-07-13T06:48:06;18.30;99.90
27619;DHT22;15039;50.830;4.730;2023-07-13T06:50:32;18.60;99.90
27619;DHT22;15039;50.830;4.730;2023-07-13T06:52:58;18.60;99.90
27619;DHT22;15039;50.830;4.730;2023-07-13T06:55:25;18.80;99.90
27619;DHT22;15039;50.830;4.730;2023-07-13T06:57:51;18.80;99.90
27619;DHT22;15039;50.830;4.730;2023-07-13T07:00:17;18.90;99.90
27619;DHT22;15039;50.830;4.730;2023-07-13T07:02:43;18.90;99.90
27619;DHT22;15039;50.830;4.730;2023-07-13T07:05:08;19.00;99.90
27619;DHT22;15039;50.830;4.730;2023-07-13T07:07:34;18.90;99.90
27619;DHT22;15039;50.830;4.730;2023-07-13T07:10:00;19.00;99.90
27619;DHT22;15039;50.830;4.730;2023-07-13T07:12:25;19.00;99.90
27619;DHT22;15039;50.830;4.730;2023-07-13T07:14:51;19.10;99.90
27619;DHT22;15039;50.830;4.730;2023-07-13T07:17:17;19.20;99.90
27619;DHT22;15039;50.830;4.730;2023-07-13T07:19:45;19.40;99.90
27619;DHT22;15039;50.830;4.730;2023-07-13T07:22:11;19.50;99.90
27619;DHT22;15039;50.830;4.730;2023-07-13T07:24:37;19.50;99.90
27619;DHT22;15039;50.830;4.730;2023-07-13T07:27:02;19.70;99.90
27619;DHT22;15039;50.830;4.730;2023-07-13T07:29:28;19.80;99.90
27619;DHT22;15039;50.830;4.730;2023-07-13T07:31:54;20.00;99.90
27619;DHT22;15039;50.830;4.730;2023-07-13T07:34:19;20.10;99.90
27619;DHT22;15039;50.830;4.730;2023-07-13T07:36:45;20.00;99.90
27619;DHT22;15039;50.830;4.730;2023-07-13T07:39:11;20.10;99.90
27619;DHT22;15039;50.830;4.730;2023-07-13T07:41:37;20.00;99.90
27619;DHT22;15039;50.830;4.730;2023-07-13T07:44:03;20.20;99.90
27619;DHT22;15039;50.830;4.730;2023-07-13T07:46:31;20.30;99.90
27619;DHT22;15039;50.830;4.730;2023-07-13T07:48:57;20.50;99.90
27619;DHT22;15039;50.830;4.730;2023-07-13T07:51:23;20.60;99.90
27619;DHT22;15039;50.830;4.730;2023-07-13T07:53:49;20.70;99.90
27619;DHT22;15039;50.830;4.730;2023-07-13T07:56:14;20.70;99.90
27619;DHT22;15039;50.830;4.730;2023-07-13T07:58:42;20.70;99.90
27619;DHT22;15039;50.830;4.730;2023-07-13T08:01:08;20.60;99.90
27619;DHT22;15039;50.830;4.730;2023-07-13T08:03:33;20.50;99.90
27619;DHT22;15039;50.830;4.730;2023-07-13T08:05:59;20.30;99.90
27619;DHT22;15039;50.830;4.730;2023-07-13T08:08:25;20.30;99.90
27619;DHT22;15039;50.830;4.730;2023-07-13T08:10:52;20.30;99.90
27619;DHT22;15039;50.830;4.730;2023-07-13T08:13:20;20.20;99.90
27619;DHT22;15039;50.830;4.730;2023-07-13T08:15:46;20.30;99.90
27619;DHT22;15039;50.830;4.730;2023-07-13T08:18:12;20.50;99.90
27619;DHT22;15039;50.830;4.730;2023-07-13T08:20:41;20.60;99.90
27619;DHT22;15039;50.830;4.730;2023-07-13T08:23:10;20.70;99.90
27619;DHT22;15039;50.830;4.730;2023-07-13T08:25:35;20.80;99.90
27619;DHT22;15039;50.830;4.730;2023-07-13T08:28:05;21.00;99.90
27619;DHT22;15039;50.830;4.730;2023-07-13T08:30:31;21.00;99.90
27619;DHT22;15039;50.830;4.730;2023-07-13T08:32:56;21.00;99.90
27619;DHT22;15039;50.830;4.730;2023-07-13T08:35:22;20.80;99.90
27619;DHT22;15039;50.830;4.730;2023-07-13T08:37:47;20.90;99.90
27619;DHT22;15039;50.830;4.730;2023-07-13T08:40:13;20.80;99.90
27619;DHT22;15039;50.830;4.730;2023-07-13T08:42:46;20.80;99.90
27619;DHT22;15039;50.830;4.730;2023-07-13T08:45:24;20.80;99.90
27619;DHT22;15039;50.830;4.730;2023-07-13T08:48:03;21.00;99.90
27619;DHT22;15039;50.830;4.730;2023-07-13T08:50:31;21.20;99.90
27619;DHT22;15039;50.830;4.730;2023-07-13T08:52:59;21.30;99.90
27619;DHT22;15039;50.830;4.730;2023-07-13T08:55:33;21.10;99.90
27619;DHT22;15039;50.830;4.730;2023-07-13T08:58:09;21.10;99.90
27619;DHT22;15039;50.830;4.730;2023-07-13T09:03:18;21.20;99.90
27619;DHT22;15039;50.830;4.730;2023-07-13T09:05:51;21.20;99.90
27619;DHT22;15039;50.830;4.730;2023-07-13T09:16:40;21.70;99.90
27619;DHT22;15039;50.830;4.730;2023-07-13T09:19:08;21.70;99.90
27619;DHT22;15039;50.830;4.730;2023-07-13T09:21:40;21.90;99.90
27619;DHT22;15039;50.830;4.730;2023-07-13T09:24:37;22.00;99.90
27619;DHT22;15039;50.830;4.730;2023-07-13T09:32:41;22.10;99.90
27619;DHT22;15039;50.830;4.730;2023-07-13T09:35:10;21.90;99.90
27619;DHT22;15039;50.830;4.730;2023-07-13T09:37:37;21.70;99.90
27619;DHT22;15039;50.830;4.730;2023-07-13T09:40:03;21.40;99.90
27619;DHT22;15039;50.830;4.730;2023-07-13T09:42:31;21.40;99.90
27619;DHT22;15039;50.830;4.730;2023-07-13T09:45:01;21.30;99.90
27619;DHT22;15039;50.830;4.730;2023-07-13T09:47:39;21.30;99.90
27619;DHT22;15039;50.830;4.730;2023-07-13T09:50:09;21.30;99.90
27619;DHT22;15039;50.830;4.730;2023-07-13T09:52:48;21.60;99.90
27619;DHT22;15039;50.830;4.730;2023-07-13T09:55:34;21.90;99.90
27619;DHT22;15039;50.830;4.730;2023-07-13T09:58:15;22.10;99.90
27619;DHT22;15039;50.830;4.730;2023-07-13T10:00:42;22.30;99.90
27619;DHT22;15039;50.830;4.730;2023-07-13T10:03:28;22.50;99.90
27619;DHT22;15039;50.830;4.730;2023-07-13T10:05:53;22.80;99.90
27619;DHT22;15039;50.830;4.730;2023-07-13T10:08:29;22.80;99.90
27619;DHT22;15039;50.830;4.730;2023-07-13T10:11:21;22.70;99.90
27619;DHT22;15039;50.830;4.730;2023-07-13T10:13:53;22.80;99.90
27619;DHT22;15039;50.830;4.730;2023-07-13T10:16:21;22.90;99.90
27619;DHT22;15039;50.830;4.730;2023-07-13T10:18:57;22.70;99.90
27619;DHT22;15039;50.830;4.730;2023-07-13T10:21:29;22.90;99.90
27619;DHT22;15039;50.830;4.730;2023-07-13T10:24:02;23.00;99.90
27619;DHT22;15039;50.830;4.730;2023-07-13T10:26:33;22.80;99.90
27619;DHT22;15039;50.830;4.730;2023-07-13T10:29:07;22.70;99.90
27619;DHT22;15039;50.830;4.730;2023-07-13T10:31:36;22.50;99.90
27619;DHT22;15039;50.830;4.730;2023-07-13T10:34:03;22.50;99.90
27619;DHT22;15039;50.830;4.730;2023-07-13T10:39:18;22.40;99.90
27619;DHT22;15039;50.830;4.730;2023-07-13T10:41:49;22.70;99.90
27619;DHT22;15039;50.830;4.730;2023-07-13T10:44:34;22.90;99.90
27619;DHT22;15039;50.830;4.730;2023-07-13T10:47:03;23.20;99.90
27619;DHT22;15039;50.830;4.730;2023-07-13T10:49:33;23.40;99.90
27619;DHT22;15039;50.830;4.730;2023-07-13T10:52:01;23.40;99.90
27619;DHT22;15039;50.830;4.730;2023-07-13T10:54:34;23.60;99.90
27619;DHT22;15039;50.830;4.730;2023-07-13T10:57:20;23.60;99.90
27619;DHT22;15039;50.830;4.730;2023-07-13T10:59:49;23.60;99.90
27619;DHT22;15039;50.830;4.730;2023-07-13T11:02:23;23.50;99.90
27619;DHT22;15039;50.830;4.730;2023-07-13T11:04:53;23.30;99.90
27619;DHT22;15039;50.830;4.730;2023-07-13T11:07:23;23.60;99.90
27619;DHT22;15039;50.830;4.730;2023-07-13T11:10:03;23.70;99.90
27619;DHT22;15039;50.830;4.730;2023-07-13T11:15:13;23.80;99.90
27619;DHT22;15039;50.830;4.730;2023-07-13T11:17:51;23.90;99.90
27619;DHT22;15039;50.830;4.730;2023-07-13T11:25:32;24.00;99.90
27619;DHT22;15039;50.830;4.730;2023-07-13T11:30:46;24.40;99.90
27619;DHT22;15039;50.830;4.730;2023-07-13T11:36:16;24.60;99.90
27619;DHT22;15039;50.830;4.730;2023-07-13T11:38:45;24.50;99.90
27619;DHT22;15039;50.830;4.730;2023-07-13T11:41:22;24.50;99.90
27619;DHT22;15039;50.830;4.730;2023-07-13T11:43:54;24.30;99.90
27619;DHT22;15039;50.830;4.730;2023-07-13T11:46:23;24.30;99.90
27619;DHT22;15039;50.830;4.730;2023-07-13T11:48:51;24.20;99.90
27619;DHT22;15039;50.830;4.730;2023-07-13T11:51:22;24.50;99.90
27619;DHT22;15039;50.830;4.730;2023-07-13T11:53:50;24.50;99.90
27619;DHT22;15039;50.830;4.730;2023-07-13T11:56:17;24.50;99.90
27619;DHT22;15039;50.830;4.730;2023-07-13T11:58:44;24.50;99.90
27619;DHT22;15039;50.830;4.730;2023-07-13T12:01:24;24.70;99.90
27619;DHT22;15039;50.830;4.730;2023-07-13T12:03:51;24.70;99.90
27619;DHT22;15039;50.830;4.730;2023-07-13T12:06:35;24.60;99.90
27619;DHT22;15039;50.830;4.730;2023-07-13T12:09:14;24.60;99.90
27619;DHT22;15039;50.830;4.730;2023-07-13T12:11:42;24.20;99.90
27619;DHT22;15039;50.830;4.730;2023-07-13T12:14:15;24.30;99.90
27619;DHT22;15039;50.830;4.730;2023-07-13T12:16:42;24.30;99.90
27619;DHT22;15039;50.830;4.730;2023-07-13T12:19:21;24.30;99.90
27619;DHT22;15039;50.830;4.730;2023-07-13T12:21:47;24.20;99.90
27619;DHT22;15039;50.830;4.730;2023-07-13T12:24:18;24.20;99.90
27619;DHT22;15039;50.830;4.730;2023-07-13T12:26:49;24.10;99.90
27619;DHT22;15039;50.830;4.730;2023-07-13T12:29:17;24.10;99.90
27619;DHT22;15039;50.830;4.730;2023-07-13T12:31:46;24.10;99.90
27619;DHT22;15039;50.830;4.730;2023-07-13T12:34:13;23.90;99.90
27619;DHT22;15039;50.830;4.730;2023-07-13T12:36:58;24.00;99.90
27619;DHT22;15039;50.830;4.730;2023-07-13T12:39:35;24.10;99.90
27619;DHT22;15039;50.830;4.730;2023-07-13T12:42:33;24.10;99.90
27619;DHT22;15039;50.830;4.730;2023-07-13T12:45:12;24.00;99.90
27619;DHT22;15039;50.830;4.730;2023-07-13T12:47:43;23.70;99.90
27619;DHT22;15039;50.830;4.730;2023-07-13T12:50:16;23.60;99.90
27619;DHT22;15039;50.830;4.730;2023-07-13T12:52:43;23.50;99.90
27619;DHT22;15039;50.830;4.730;2023-07-13T12:55:17;23.60;99.90
27619;DHT22;15039;50.830;4.730;2023-07-13T12:57:55;23.70;99.90
27619;DHT22;15039;50.830;4.730;2023-07-13T13:00:30;23.90;99.90
27619;DHT22;15039;50.830;4.730;2023-07-13T13:03:02;24.20;99.90
27619;DHT22;15039;50.830;4.730;2023-07-13T13:05:30;24.40;99.90
27619;DHT22;15039;50.830;4.730;2023-07-13T13:07:56;24.60;99.90
27619;DHT22;15039;50.830;4.730;2023-07-13T13:10:22;24.50;99.90
27619;DHT22;15039;50.830;4.730;2023-07-13T13:12:48;24.00;99.90
27619;DHT22;15039;50.830;4.730;2023-07-13T13:15:14;23.10;99.90
27619;DHT22;15039;50.830;4.730;2023-07-13T13:17:40;22.50;99.90
27619;DHT22;15039;50.830;4.730;2023-07-13T13:20:17;22.00;99.90
27619;DHT22;15039;50.830;4.730;2023-07-13T13:22:43;21.60;99.90
27619;DHT22;15039;50.830;4.730;2023-07-13T13:25:13;21.60;99.90
27619;DHT22;15039;50.830;4.730;2023-07-13T13:27:41;21.50;99.90
27619;DHT22;15039;50.830;4.730;2023-07-13T13:30:16;21.40;99.90
27619;DHT22;15039;50.830;4.730;2023-07-13T13:32:47;21.30;99.90
27619;DHT22;15039;50.830;4.730;2023-07-13T13:35:18;21.00;99.90
27619;DHT22;15039;50.830;4.730;2023-07-13T13:37:44;20.70;99.90
27619;DHT22;15039;50.830;4.730;2023-07-13T13:40:18;20.60;99.90
27619;DHT22;15039;50.830;4.730;2023-07-13T13:42:44;20.70;99.90
27619;DHT22;15039;50.830;4.730;2023-07-13T13:45:10;21.00;99.90
27619;DHT22;15039;50.830;4.730;2023-07-13T13:47:38;21.30;99.90
27619;DHT22;15039;50.830;4.730;2023-07-13T13:52:37;22.10;99.90
27619;DHT22;15039;50.830;4.730;2023-07-13T13:55:11;22.50;99.90
27619;DHT22;15039;50.830;4.730;2023-07-13T13:57:37;22.80;99.90
27619;DHT22;15039;50.830;4.730;2023-07-13T14:00:03;23.10;99.90
27619;DHT22;15039;50.830;4.730;2023-07-13T14:02:29;23.40;99.90
27619;DHT22;15039;50.830;4.730;2023-07-13T14:04:59;23.60;99.90
27619;DHT22;15039;50.830;4.730;2023-07-13T14:07:26;23.80;99.90
27619;DHT22;15039;50.830;4.730;2023-07-13T14:09:57;24.00;99.90
27619;DHT22;15039;50.830;4.730;2023-07-13T14:12:23;24.10;99.90
27619;DHT22;15039;50.830;4.730;2023-07-13T14:14:51;24.40;99.90
27619;DHT22;15039;50.830;4.730;2023-07-13T14:17:22;24.50;99.90
27619;DHT22;15039;50.830;4.730;2023-07-13T14:19:50;24.00;99.90
27619;DHT22;15039;50.830;4.730;2023-07-13T14:22:17;23.90;99.90
27619;DHT22;15039;50.830;4.730;2023-07-13T14:24:43;23.90;99.90
27619;DHT22;15039;50.830;4.730;2023-07-13T14:27:11;24.10;99.90
27619;DHT22;15039;50.830;4.730;2023-07-13T14:29:37;24.20;99.90
27619;DHT22;15039;50.830;4.730;2023-07-13T14:32:03;23.90;99.90
27619;DHT22;15039;50.830;4.730;2023-07-13T14:34:30;24.10;99.90
27619;DHT22;15039;50.830;4.730;2023-07-13T14:36:56;24.30;99.90
27619;DHT22;15039;50.830;4.730;2023-07-13T14:39:23;24.40;99.90
27619;DHT22;15039;50.830;4.730;2023-07-13T14:41:54;24.60;99.90
27619;DHT22;15039;50.830;4.730;2023-07-13T14:44:31;24.70;99.90
27619;DHT22;15039;50.830;4.730;2023-07-13T14:46:58;24.70;99.90
27619;DHT22;15039;50.830;4.730;2023-07-13T14:49:27;24.70;99.90
27619;DHT22;15039;50.830;4.730;2023-07-13T14:51:56;24.70;99.90
27619;DHT22;15039;50.830;4.730;2023-07-13T14:54:23;24.60;99.90
27619;DHT22;15039;50.830;4.730;2023-07-13T14:56:49;24.70;99.90
27619;DHT22;15039;50.830;4.730;2023-07-13T14:59:15;24.90;99.90
27619;DHT22;15039;50.830;4.730;2023-07-13T15:01:43;24.90;99.90
27619;DHT22;15039;50.830;4.730;2023-07-13T15:04:08;24.80;99.90
27619;DHT22;15039;50.830;4.730;2023-07-13T15:06:59;24.50;99.90
27619;DHT22;15039;50.830;4.730;2023-07-13T15:09:26;24.30;99.90
27619;DHT22;15039;50.830;4.730;2023-07-13T15:11:55;24.10;99.90
27619;DHT22;15039;50.830;4.730;2023-07-13T15:14:21;23.90;99.90
27619;DHT22;15039;50.830;4.730;2023-07-13T15:16:53;23.90;99.90
27619;DHT22;15039;50.830;4.730;2023-07-13T15:19:20;23.90;99.90
27619;DHT22;15039;50.830;4.730;2023-07-13T15:21:47;23.90;99.90
27619;DHT22;15039;50.830;4.730;2023-07-13T15:24:13;23.90;99.90
27619;DHT22;15039;50.830;4.730;2023-07-13T15:26:42;24.00;99.90
27619;DHT22;15039;50.830;4.730;2023-07-13T15:29:14;24.10;99.90
27619;DHT22;15039;50.830;4.730;2023-07-13T15:31:41;24.30;99.90
27619;DHT22;15039;50.830;4.730;2023-07-13T15:34:16;24.40;99.90
27619;DHT22;15039;50.830;4.730;2023-07-13T15:36:43;24.30;99.90
27619;DHT22;15039;50.830;4.730;2023-07-13T15:39:14;24.20;99.90
27619;DHT22;15039;50.830;4.730;2023-07-13T15:41:42;24.30;99.90
27619;DHT22;15039;50.830;4.730;2023-07-13T15:44:34;24.20;99.90
27619;DHT22;15039;50.830;4.730;2023-07-13T15:47:02;24.20;99.90
27619;DHT22;15039;50.830;4.730;2023-07-13T15:49:29;24.20;99.90
27619;DHT22;15039;50.830;4.730;2023-07-13T15:51:55;24.20;99.90
27619;DHT22;15039;50.830;4.730;2023-07-13T15:54:22;24.20;99.90
27619;DHT22;15039;50.830;4.730;2023-07-13T15:56:53;24.40;99.90
27619;DHT22;15039;50.830;4.730;2023-07-13T15:59:21;24.50;99.90
27619;DHT22;15039;50.830;4.730;2023-07-13T16:01:46;24.70;99.90
27619;DHT22;15039;50.830;4.730;2023-07-13T16:04:14;25.00;99.90
27619;DHT22;15039;50.830;4.730;2023-07-13T16:06:41;25.10;99.90
27619;DHT22;15039;50.830;4.730;2023-07-13T16:09:17;25.00;99.90
27619;DHT22;15039;50.830;4.730;2023-07-13T16:11:44;25.20;99.90
27619;DHT22;15039;50.830;4.730;2023-07-13T16:14:13;25.30;99.90
27619;DHT22;15039;50.830;4.730;2023-07-13T16:16:42;25.40;99.90